sensor_id;sensor_type;location;lat;lon;timestamp;P1;durP1;ratioP1;P2;durP2;ratioP2
62654;SDS011;48717;55.556;37.816;2023-03-21T00:01:51;11.75;;;5.05;;
62654;SDS011;48717;55.556;37.816;2023-03-21T00:04:22;11.10;;;4.97;;
62654;SDS011;48717;55.556;37.816;2023-03-21T00:06:55;9.63;;;4.75;;
62654;SDS011;48717;55.556;37.816;2023-03-21T00:09:22;10.57;;;4.68;;
62654;SDS011;48717;55.556;37.816;2023-03-21T00:11:49;13.38;;;6.40;;
62654;SDS011;48717;55.556;37.816;2023-03-21T00:14:16;10.93;;;4.22;;
62654;SDS011;48717;55.556;37.816;2023-03-21T00:16:46;13.80;;;6.05;;
62654;SDS011;48717;55.556;37.816;2023-03-21T00:19:19;16.83;;;5.75;;
62654;SDS011;48717;55.556;37.816;2023-03-21T00:21:46;10.20;;;4.65;;
62654;SDS011;48717;55.556;37.816;2023-03-21T00:24:34;9.13;;;4.70;;
62654;SDS011;48717;55.556;37.816;2023-03-21T00:27:02;13.60;;;5.53;;
62654;SDS011;48717;55.556;37.816;2023-03-21T00:29:49;14.68;;;5.50;;
62654;SDS011;48717;55.556;37.816;2023-03-21T00:32:19;12.93;;;4.90;;
62654;SDS011;48717;55.556;37.816;2023-03-21T00:34:47;11.18;;;5.18;;
62654;SDS011;48717;55.556;37.816;2023-03-21T00:37:35;10.75;;;5.40;;
62654;SDS011;48717;55.556;37.816;2023-03-21T00:40:02;6.25;;;2.85;;
62654;SDS011;48717;55.556;37.816;2023-03-21T00:42:48;8.30;;;4.00;;
62654;SDS011;48717;55.556;37.816;2023-03-21T00:45:16;10.27;;;4.60;;
62654;SDS011;48717;55.556;37.816;2023-03-21T00:47:44;8.70;;;4.20;;
62654;SDS011;48717;55.556;37.816;2023-03-21T00:50:12;9.07;;;4.88;;
62654;SDS011;48717;55.556;37.816;2023-03-21T00:52:39;8.18;;;3.80;;
62654;SDS011;48717;55.556;37.816;2023-03-21T00:55:08;11.30;;;4.70;;
62654;SDS011;48717;55.556;37.816;2023-03-21T00:57:40;11.95;;;4.78;;
62654;SDS011;48717;55.556;37.816;2023-03-21T01:00:13;8.38;;;4.40;;
62654;SDS011;48717;55.556;37.816;2023-03-21T01:02:41;8.48;;;3.85;;
62654;SDS011;48717;55.556;37.816;2023-03-21T01:05:40;4.50;;;2.78;;
62654;SDS011;48717;55.556;37.816;2023-03-21T01:08:34;7.68;;;4.18;;
62654;SDS011;48717;55.556;37.816;2023-03-21T01:11:20;7.00;;;3.47;;
62654;SDS011;48717;55.556;37.816;2023-03-21T01:16:27;7.03;;;3.50;;
62654;SDS011;48717;55.556;37.816;2023-03-21T01:18:55;9.43;;;4.15;;
62654;SDS011;48717;55.556;37.816;2023-03-21T01:21:22;10.80;;;4.63;;
62654;SDS011;48717;55.556;37.816;2023-03-21T01:23:50;8.25;;;4.72;;
62654;SDS011;48717;55.556;37.816;2023-03-21T01:26:17;10.40;;;4.80;;
62654;SDS011;48717;55.556;37.816;2023-03-21T01:28:44;9.27;;;3.42;;
62654;SDS011;48717;55.556;37.816;2023-03-21T01:31:12;10.48;;;4.45;;
62654;SDS011;48717;55.556;37.816;2023-03-21T01:33:41;7.47;;;3.80;;
62654;SDS011;48717;55.556;37.816;2023-03-21T01:36:16;8.93;;;3.85;;
62654;SDS011;48717;55.556;37.816;2023-03-21T01:38:51;8.85;;;3.95;;
62654;SDS011;48717;55.556;37.816;2023-03-21T01:41:20;8.35;;;4.03;;
62654;SDS011;48717;55.556;37.816;2023-03-21T01:44:16;9.50;;;4.25;;
62654;SDS011;48717;55.556;37.816;2023-03-21T01:46:46;7.05;;;3.75;;
62654;SDS011;48717;55.556;37.816;2023-03-21T01:50:03;6.53;;;3.80;;
62654;SDS011;48717;55.556;37.816;2023-03-21T01:52:47;9.75;;;3.97;;
62654;SDS011;48717;55.556;37.816;2023-03-21T01:55:23;8.27;;;4.30;;
62654;SDS011;48717;55.556;37.816;2023-03-21T01:58:11;9.73;;;4.38;;
62654;SDS011;48717;55.556;37.816;2023-03-21T02:01:03;8.98;;;3.92;;
62654;SDS011;48717;55.556;37.816;2023-03-21T02:03:41;9.27;;;4.00;;
62654;SDS011;48717;55.556;37.816;2023-03-21T02:06:37;12.32;;;4.88;;
62654;SDS011;48717;55.556;37.816;2023-03-21T02:09:21;10.18;;;5.15;;
62654;SDS011;48717;55.556;37.816;2023-03-21T02:11:51;7.70;;;3.92;;
62654;SDS011;48717;55.556;37.816;2023-03-21T02:14:21;10.63;;;4.72;;
62654;SDS011;48717;55.556;37.816;2023-03-21T02:17:13;8.10;;;3.70;;
62654;SDS011;48717;55.556;37.816;2023-03-21T02:23:09;15.80;;;7.05;;
62654;SDS011;48717;55.556;37.816;2023-03-21T02:32:03;11.40;;;4.95;;
62654;SDS011;48717;55.556;37.816;2023-03-21T02:34:59;10.52;;;4.65;;
62654;SDS011;48717;55.556;37.816;2023-03-21T02:37:44;11.10;;;4.75;;
62654;SDS011;48717;55.556;37.816;2023-03-21T02:40:32;13.57;;;5.15;;
62654;SDS011;48717;55.556;37.816;2023-03-21T02:45:54;11.75;;;4.85;;
62654;SDS011;48717;55.556;37.816;2023-03-21T02:48:31;12.45;;;4.88;;
62654;SDS011;48717;55.556;37.816;2023-03-21T02:51:17;8.95;;;4.57;;
62654;SDS011;48717;55.556;37.816;2023-03-21T02:53:57;11.27;;;4.55;;
62654;SDS011;48717;55.556;37.816;2023-03-21T02:56:48;10.23;;;5.50;;
62654;SDS011;48717;55.556;37.816;2023-03-21T02:59:18;17.92;;;5.75;;
62654;SDS011;48717;55.556;37.816;2023-03-21T03:01:51;12.50;;;5.40;;
62654;SDS011;48717;55.556;37.816;2023-03-21T03:04:25;11.60;;;5.05;;
62654;SDS011;48717;55.556;37.816;2023-03-21T03:07:05;10.75;;;5.40;;
62654;SDS011;48717;55.556;37.816;2023-03-21T03:17:56;10.23;;;4.65;;
62654;SDS011;48717;55.556;37.816;2023-03-21T03:23:20;13.18;;;5.55;;
62654;SDS011;48717;55.556;37.816;2023-03-21T03:28:36;10.88;;;5.45;;
62654;SDS011;48717;55.556;37.816;2023-03-21T03:31:12;11.02;;;5.05;;
62654;SDS011;48717;55.556;37.816;2023-03-21T03:33:51;12.82;;;4.40;;
62654;SDS011;48717;55.556;37.816;2023-03-21T03:36:24;10.02;;;4.85;;
62654;SDS011;48717;55.556;37.816;2023-03-21T03:39:09;19.27;;;5.63;;
62654;SDS011;48717;55.556;37.816;2023-03-21T03:41:46;12.75;;;6.30;;
62654;SDS011;48717;55.556;37.816;2023-03-21T03:44:49;11.40;;;5.88;;
62654;SDS011;48717;55.556;37.816;2023-03-21T03:47:26;12.05;;;5.78;;
62654;SDS011;48717;55.556;37.816;2023-03-21T03:50:23;9.35;;;4.13;;
62654;SDS011;48717;55.556;37.816;2023-03-21T03:52:58;16.08;;;6.22;;
62654;SDS011;48717;55.556;37.816;2023-03-21T03:55:42;13.18;;;5.78;;
62654;SDS011;48717;55.556;37.816;2023-03-21T03:58:15;13.40;;;5.93;;
62654;SDS011;48717;55.556;37.816;2023-03-21T04:00:51;15.45;;;6.13;;
62654;SDS011;48717;55.556;37.816;2023-03-21T04:03:20;13.95;;;6.80;;
62654;SDS011;48717;55.556;37.816;2023-03-21T04:05:48;16.13;;;6.35;;
62654;SDS011;48717;55.556;37.816;2023-03-21T04:08:16;14.40;;;6.50;;
62654;SDS011;48717;55.556;37.816;2023-03-21T04:10:49;13.20;;;6.60;;
62654;SDS011;48717;55.556;37.816;2023-03-21T04:13:16;13.88;;;5.80;;
62654;SDS011;48717;55.556;37.816;2023-03-21T04:18:24;12.40;;;6.15;;
62654;SDS011;48717;55.556;37.816;2023-03-21T04:20:51;13.00;;;4.60;;
62654;SDS011;48717;55.556;37.816;2023-03-21T04:23:18;13.35;;;6.60;;
62654;SDS011;48717;55.556;37.816;2023-03-21T04:25:47;14.45;;;5.97;;
62654;SDS011;48717;55.556;37.816;2023-03-21T04:28:30;12.40;;;6.03;;
62654;SDS011;48717;55.556;37.816;2023-03-21T04:31:25;12.90;;;6.22;;
62654;SDS011;48717;55.556;37.816;2023-03-21T04:34:09;13.60;;;4.95;;
62654;SDS011;48717;55.556;37.816;2023-03-21T04:36:42;13.00;;;5.72;;
62654;SDS011;48717;55.556;37.816;2023-03-21T04:39:12;13.57;;;5.90;;
62654;SDS011;48717;55.556;37.816;2023-03-21T04:41:42;17.13;;;6.95;;
62654;SDS011;48717;55.556;37.816;2023-03-21T04:44:12;16.45;;;6.07;;
62654;SDS011;48717;55.556;37.816;2023-03-21T04:46:41;13.50;;;6.03;;
62654;SDS011;48717;55.556;37.816;2023-03-21T04:49:09;67.65;;;33.42;;
62654;SDS011;48717;55.556;37.816;2023-03-21T04:51:37;25.45;;;10.35;;
62654;SDS011;48717;55.556;37.816;2023-03-21T04:54:08;13.75;;;6.05;;
62654;SDS011;48717;55.556;37.816;2023-03-21T04:56:35;16.92;;;6.47;;
62654;SDS011;48717;55.556;37.816;2023-03-21T04:59:11;23.77;;;6.18;;
62654;SDS011;48717;55.556;37.816;2023-03-21T05:01:40;15.88;;;6.65;;
62654;SDS011;48717;55.556;37.816;2023-03-21T05:04:10;18.55;;;7.07;;
62654;SDS011;48717;55.556;37.816;2023-03-21T05:06:39;5.88;;;3.40;;
62654;SDS011;48717;55.556;37.816;2023-03-21T05:09:10;15.57;;;7.10;;
62654;SDS011;48717;55.556;37.816;2023-03-21T05:11:38;14.13;;;5.68;;
62654;SDS011;48717;55.556;37.816;2023-03-21T05:14:09;9.05;;;4.40;;
62654;SDS011;48717;55.556;37.816;2023-03-21T05:16:40;11.10;;;5.45;;
62654;SDS011;48717;55.556;37.816;2023-03-21T05:19:20;11.95;;;5.22;;
62654;SDS011;48717;55.556;37.816;2023-03-21T05:21:50;16.38;;;6.20;;
62654;SDS011;48717;55.556;37.816;2023-03-21T05:24:24;14.00;;;5.32;;
62654;SDS011;48717;55.556;37.816;2023-03-21T05:26:52;11.27;;;5.22;;
62654;SDS011;48717;55.556;37.816;2023-03-21T05:29:26;15.82;;;7.13;;
62654;SDS011;48717;55.556;37.816;2023-03-21T05:31:59;14.73;;;7.20;;
62654;SDS011;48717;55.556;37.816;2023-03-21T05:34:27;16.98;;;7.80;;
62654;SDS011;48717;55.556;37.816;2023-03-21T05:36:54;18.15;;;7.38;;
62654;SDS011;48717;55.556;37.816;2023-03-21T05:39:25;15.55;;;6.78;;
62654;SDS011;48717;55.556;37.816;2023-03-21T05:42:02;20.02;;;7.88;;
62654;SDS011;48717;55.556;37.816;2023-03-21T05:44:29;21.08;;;9.10;;
62654;SDS011;48717;55.556;37.816;2023-03-21T05:46:57;22.63;;;8.63;;
62654;SDS011;48717;55.556;37.816;2023-03-21T05:49:35;21.23;;;7.45;;
62654;SDS011;48717;55.556;37.816;2023-03-21T05:52:03;16.95;;;7.13;;
62654;SDS011;48717;55.556;37.816;2023-03-21T05:54:30;19.77;;;8.10;;
62654;SDS011;48717;55.556;37.816;2023-03-21T05:56:57;18.90;;;7.72;;
62654;SDS011;48717;55.556;37.816;2023-03-21T05:59:42;22.27;;;8.63;;
62654;SDS011;48717;55.556;37.816;2023-03-21T06:02:09;22.05;;;7.53;;
62654;SDS011;48717;55.556;37.816;2023-03-21T06:04:38;12.05;;;4.88;;
62654;SDS011;48717;55.556;37.816;2023-03-21T06:07:05;19.13;;;7.50;;
62654;SDS011;48717;55.556;37.816;2023-03-21T06:09:33;19.73;;;7.45;;
62654;SDS011;48717;55.556;37.816;2023-03-21T06:12:02;25.15;;;8.48;;
62654;SDS011;48717;55.556;37.816;2023-03-21T06:14:48;17.65;;;6.93;;
62654;SDS011;48717;55.556;37.816;2023-03-21T06:17:26;18.67;;;7.18;;
62654;SDS011;48717;55.556;37.816;2023-03-21T06:19:59;17.77;;;6.90;;
62654;SDS011;48717;55.556;37.816;2023-03-21T06:22:35;18.75;;;8.18;;
62654;SDS011;48717;55.556;37.816;2023-03-21T06:25:04;19.83;;;7.97;;
62654;SDS011;48717;55.556;37.816;2023-03-21T06:27:33;18.30;;;7.63;;
62654;SDS011;48717;55.556;37.816;2023-03-21T06:30:01;18.33;;;7.25;;
62654;SDS011;48717;55.556;37.816;2023-03-21T06:32:34;18.30;;;7.72;;
62654;SDS011;48717;55.556;37.816;2023-03-21T06:35:08;17.25;;;8.20;;
62654;SDS011;48717;55.556;37.816;2023-03-21T06:37:36;18.77;;;7.20;;
62654;SDS011;48717;55.556;37.816;2023-03-21T06:40:04;21.15;;;7.70;;
62654;SDS011;48717;55.556;37.816;2023-03-21T06:42:34;15.63;;;6.57;;
62654;SDS011;48717;55.556;37.816;2023-03-21T06:45:08;10.27;;;5.03;;
62654;SDS011;48717;55.556;37.816;2023-03-21T06:47:35;17.85;;;7.50;;
62654;SDS011;48717;55.556;37.816;2023-03-21T06:50:06;20.02;;;7.78;;
62654;SDS011;48717;55.556;37.816;2023-03-21T06:52:39;15.88;;;8.60;;
62654;SDS011;48717;55.556;37.816;2023-03-21T06:55:06;18.40;;;7.30;;
62654;SDS011;48717;55.556;37.816;2023-03-21T06:57:34;20.95;;;7.85;;
62654;SDS011;48717;55.556;37.816;2023-03-21T07:00:02;21.00;;;8.75;;
62654;SDS011;48717;55.556;37.816;2023-03-21T07:02:32;23.92;;;8.30;;
62654;SDS011;48717;55.556;37.816;2023-03-21T07:05:08;20.80;;;7.88;;
62654;SDS011;48717;55.556;37.816;2023-03-21T07:07:35;18.98;;;8.35;;
62654;SDS011;48717;55.556;37.816;2023-03-21T07:10:03;19.23;;;8.60;;
62654;SDS011;48717;55.556;37.816;2023-03-21T07:12:40;24.77;;;8.60;;
62654;SDS011;48717;55.556;37.816;2023-03-21T07:15:14;22.67;;;9.38;;
62654;SDS011;48717;55.556;37.816;2023-03-21T07:17:43;21.55;;;7.70;;
62654;SDS011;48717;55.556;37.816;2023-03-21T07:20:11;20.83;;;7.75;;
62654;SDS011;48717;55.556;37.816;2023-03-21T07:22:38;17.98;;;8.00;;
62654;SDS011;48717;55.556;37.816;2023-03-21T07:25:06;15.15;;;7.82;;
62654;SDS011;48717;55.556;37.816;2023-03-21T07:27:38;17.92;;;8.48;;
62654;SDS011;48717;55.556;37.816;2023-03-21T07:30:07;17.85;;;8.57;;
62654;SDS011;48717;55.556;37.816;2023-03-21T07:32:35;16.70;;;7.88;;
62654;SDS011;48717;55.556;37.816;2023-03-21T07:35:07;21.13;;;8.95;;
62654;SDS011;48717;55.556;37.816;2023-03-21T07:37:37;23.40;;;8.88;;
62654;SDS011;48717;55.556;37.816;2023-03-21T07:40:06;26.13;;;9.77;;
62654;SDS011;48717;55.556;37.816;2023-03-21T07:42:39;26.35;;;8.95;;
62654;SDS011;48717;55.556;37.816;2023-03-21T07:45:09;19.23;;;8.90;;
62654;SDS011;48717;55.556;37.816;2023-03-21T07:47:38;18.92;;;8.95;;
62654;SDS011;48717;55.556;37.816;2023-03-21T07:50:05;20.33;;;9.23;;
62654;SDS011;48717;55.556;37.816;2023-03-21T07:52:32;16.83;;;7.63;;
62654;SDS011;48717;55.556;37.816;2023-03-21T07:54:59;25.40;;;10.25;;
62654;SDS011;48717;55.556;37.816;2023-03-21T07:57:26;20.92;;;9.20;;
62654;SDS011;48717;55.556;37.816;2023-03-21T07:59:53;23.88;;;9.48;;
62654;SDS011;48717;55.556;37.816;2023-03-21T08:02:20;22.30;;;8.48;;
62654;SDS011;48717;55.556;37.816;2023-03-21T08:04:47;18.50;;;7.28;;
62654;SDS011;48717;55.556;37.816;2023-03-21T08:07:15;16.35;;;6.95;;
62654;SDS011;48717;55.556;37.816;2023-03-21T08:09:42;22.40;;;8.05;;
62654;SDS011;48717;55.556;37.816;2023-03-21T08:12:10;15.82;;;7.50;;
62654;SDS011;48717;55.556;37.816;2023-03-21T08:14:37;18.63;;;7.65;;
62654;SDS011;48717;55.556;37.816;2023-03-21T08:17:04;13.68;;;6.63;;
62654;SDS011;48717;55.556;37.816;2023-03-21T08:19:32;14.82;;;6.63;;
62654;SDS011;48717;55.556;37.816;2023-03-21T08:22:00;16.58;;;6.40;;
62654;SDS011;48717;55.556;37.816;2023-03-21T08:24:27;14.80;;;6.53;;
62654;SDS011;48717;55.556;37.816;2023-03-21T08:26:55;18.15;;;6.78;;
62654;SDS011;48717;55.556;37.816;2023-03-21T08:29:22;25.83;;;6.47;;
62654;SDS011;48717;55.556;37.816;2023-03-21T08:31:50;9.90;;;5.38;;
62654;SDS011;48717;55.556;37.816;2023-03-21T08:34:17;13.73;;;5.82;;
62654;SDS011;48717;55.556;37.816;2023-03-21T08:36:45;20.10;;;6.50;;
62654;SDS011;48717;55.556;37.816;2023-03-21T08:39:12;16.52;;;6.00;;
62654;SDS011;48717;55.556;37.816;2023-03-21T08:41:39;12.93;;;5.15;;
62654;SDS011;48717;55.556;37.816;2023-03-21T08:44:06;23.15;;;6.97;;
62654;SDS011;48717;55.556;37.816;2023-03-21T08:46:35;13.52;;;6.70;;
62654;SDS011;48717;55.556;37.816;2023-03-21T08:49:02;14.23;;;6.82;;
62654;SDS011;48717;55.556;37.816;2023-03-21T08:51:29;17.00;;;7.10;;
62654;SDS011;48717;55.556;37.816;2023-03-21T08:53:57;16.05;;;7.22;;
62654;SDS011;48717;55.556;37.816;2023-03-21T08:56:24;12.80;;;6.45;;
62654;SDS011;48717;55.556;37.816;2023-03-21T08:58:51;19.83;;;7.32;;
62654;SDS011;48717;55.556;37.816;2023-03-21T09:01:18;19.23;;;7.80;;
62654;SDS011;48717;55.556;37.816;2023-03-21T09:03:45;12.27;;;5.80;;
62654;SDS011;48717;55.556;37.816;2023-03-21T09:06:12;12.45;;;6.90;;
62654;SDS011;48717;55.556;37.816;2023-03-21T09:08:39;12.05;;;5.90;;
62654;SDS011;48717;55.556;37.816;2023-03-21T09:11:08;14.45;;;6.60;;
62654;SDS011;48717;55.556;37.816;2023-03-21T09:13:36;9.65;;;4.93;;
62654;SDS011;48717;55.556;37.816;2023-03-21T09:16:03;12.95;;;6.53;;
62654;SDS011;48717;55.556;37.816;2023-03-21T09:18:30;12.05;;;5.68;;
62654;SDS011;48717;55.556;37.816;2023-03-21T09:21:15;12.23;;;5.97;;
62654;SDS011;48717;55.556;37.816;2023-03-21T09:23:44;9.32;;;4.97;;
62654;SDS011;48717;55.556;37.816;2023-03-21T09:26:11;10.80;;;5.18;;
62654;SDS011;48717;55.556;37.816;2023-03-21T09:28:41;9.70;;;4.82;;
62654;SDS011;48717;55.556;37.816;2023-03-21T09:31:08;7.75;;;3.45;;
62654;SDS011;48717;55.556;37.816;2023-03-21T09:33:37;9.48;;;4.72;;
62654;SDS011;48717;55.556;37.816;2023-03-21T09:36:08;10.15;;;4.68;;
62654;SDS011;48717;55.556;37.816;2023-03-21T09:38:45;14.15;;;5.63;;
62654;SDS011;48717;55.556;37.816;2023-03-21T09:41:19;12.35;;;6.40;;
62654;SDS011;48717;55.556;37.816;2023-03-21T09:44:04;13.48;;;6.20;;
62654;SDS011;48717;55.556;37.816;2023-03-21T09:46:40;13.50;;;6.90;;
62654;SDS011;48717;55.556;37.816;2023-03-21T09:49:23;10.75;;;5.57;;
62654;SDS011;48717;55.556;37.816;2023-03-21T09:52:00;14.52;;;7.25;;
62654;SDS011;48717;55.556;37.816;2023-03-21T09:54:36;10.30;;;5.53;;
62654;SDS011;48717;55.556;37.816;2023-03-21T09:59:52;10.30;;;5.00;;
62654;SDS011;48717;55.556;37.816;2023-03-21T10:02:28;11.32;;;5.15;;
62654;SDS011;48717;55.556;37.816;2023-03-21T10:05:02;8.15;;;4.65;;
62654;SDS011;48717;55.556;37.816;2023-03-21T10:07:38;9.30;;;5.03;;
62654;SDS011;48717;55.556;37.816;2023-03-21T10:10:18;11.77;;;5.85;;
62654;SDS011;48717;55.556;37.816;2023-03-21T10:12:49;12.30;;;6.13;;
62654;SDS011;48717;55.556;37.816;2023-03-21T10:15:20;11.93;;;6.30;;
62654;SDS011;48717;55.556;37.816;2023-03-21T10:18:02;12.50;;;5.13;;
62654;SDS011;48717;55.556;37.816;2023-03-21T10:20:33;8.63;;;5.10;;
62654;SDS011;48717;55.556;37.816;2023-03-21T10:23:04;11.27;;;6.50;;
62654;SDS011;48717;55.556;37.816;2023-03-21T10:25:35;12.13;;;6.05;;
62654;SDS011;48717;55.556;37.816;2023-03-21T10:28:11;9.25;;;5.28;;
62654;SDS011;48717;55.556;37.816;2023-03-21T10:30:52;11.10;;;5.43;;
62654;SDS011;48717;55.556;37.816;2023-03-21T10:33:22;10.38;;;5.60;;
62654;SDS011;48717;55.556;37.816;2023-03-21T10:36:10;8.27;;;4.43;;
62654;SDS011;48717;55.556;37.816;2023-03-21T10:38:45;7.25;;;3.85;;
62654;SDS011;48717;55.556;37.816;2023-03-21T10:41:14;8.02;;;4.22;;
62654;SDS011;48717;55.556;37.816;2023-03-21T10:43:42;8.90;;;4.75;;
62654;SDS011;48717;55.556;37.816;2023-03-21T10:46:18;8.57;;;4.43;;
62654;SDS011;48717;55.556;37.816;2023-03-21T10:48:50;7.45;;;4.55;;
62654;SDS011;48717;55.556;37.816;2023-03-21T10:51:19;5.70;;;3.63;;
62654;SDS011;48717;55.556;37.816;2023-03-21T10:54:06;7.40;;;3.90;;
62654;SDS011;48717;55.556;37.816;2023-03-21T10:56:43;9.70;;;5.88;;
62654;SDS011;48717;55.556;37.816;2023-03-21T10:59:17;10.63;;;5.85;;
62654;SDS011;48717;55.556;37.816;2023-03-21T11:01:49;9.45;;;5.20;;
62654;SDS011;48717;55.556;37.816;2023-03-21T11:04:19;18.13;;;8.60;;
62654;SDS011;48717;55.556;37.816;2023-03-21T11:06:53;9.15;;;5.13;;
62654;SDS011;48717;55.556;37.816;2023-03-21T11:09:26;8.48;;;4.57;;
62654;SDS011;48717;55.556;37.816;2023-03-21T11:12:14;8.15;;;4.25;;
62654;SDS011;48717;55.556;37.816;2023-03-21T11:18:20;7.28;;;3.50;;
62654;SDS011;48717;55.556;37.816;2023-03-21T11:20:51;9.77;;;5.28;;
62654;SDS011;48717;55.556;37.816;2023-03-21T11:23:24;11.73;;;5.10;;
62654;SDS011;48717;55.556;37.816;2023-03-21T11:25:52;4.05;;;2.80;;
62654;SDS011;48717;55.556;37.816;2023-03-21T11:28:21;7.53;;;3.08;;
62654;SDS011;48717;55.556;37.816;2023-03-21T11:30:51;6.95;;;4.43;;
62654;SDS011;48717;55.556;37.816;2023-03-21T11:33:26;8.25;;;3.47;;
62654;SDS011;48717;55.556;37.816;2023-03-21T11:36:00;6.40;;;4.47;;
62654;SDS011;48717;55.556;37.816;2023-03-21T11:38:34;19.35;;;12.02;;
62654;SDS011;48717;55.556;37.816;2023-03-21T11:41:03;6.38;;;4.22;;
62654;SDS011;48717;55.556;37.816;2023-03-21T11:43:35;7.63;;;3.20;;
62654;SDS011;48717;55.556;37.816;2023-03-21T11:46:06;11.73;;;4.10;;
62654;SDS011;48717;55.556;37.816;2023-03-21T11:48:38;6.10;;;3.10;;
62654;SDS011;48717;55.556;37.816;2023-03-21T11:51:55;3.55;;;2.50;;
62654;SDS011;48717;55.556;37.816;2023-03-21T12:02:38;5.35;;;3.22;;
62654;SDS011;48717;55.556;37.816;2023-03-21T12:05:22;11.88;;;4.57;;
62654;SDS011;48717;55.556;37.816;2023-03-21T12:14:58;7.03;;;3.45;;
62654;SDS011;48717;55.556;37.816;2023-03-21T12:17:38;5.95;;;3.47;;
62654;SDS011;48717;55.556;37.816;2023-03-21T12:25:21;4.68;;;2.38;;
62654;SDS011;48717;55.556;37.816;2023-03-21T12:30:32;9.27;;;3.90;;
62654;SDS011;48717;55.556;37.816;2023-03-21T12:35:48;3.65;;;2.83;;
62654;SDS011;48717;55.556;37.816;2023-03-21T12:44:21;3.65;;;2.30;;
62654;SDS011;48717;55.556;37.816;2023-03-21T12:49:47;5.30;;;2.80;;
62654;SDS011;48717;55.556;37.816;2023-03-21T12:52:26;8.55;;;4.75;;
62654;SDS011;48717;55.556;37.816;2023-03-21T12:57:32;8.23;;;4.22;;
62654;SDS011;48717;55.556;37.816;2023-03-21T13:00:26;12.15;;;3.08;;
62654;SDS011;48717;55.556;37.816;2023-03-21T13:06:03;4.90;;;2.70;;
62654;SDS011;48717;55.556;37.816;2023-03-21T13:11:19;9.55;;;2.85;;
62654;SDS011;48717;55.556;37.816;2023-03-21T13:13:51;7.45;;;3.03;;
62654;SDS011;48717;55.556;37.816;2023-03-21T13:19:12;5.25;;;3.10;;
62654;SDS011;48717;55.556;37.816;2023-03-21T13:24:38;6.82;;;3.30;;
62654;SDS011;48717;55.556;37.816;2023-03-21T13:27:31;8.75;;;3.42;;
62654;SDS011;48717;55.556;37.816;2023-03-21T13:30:04;4.43;;;2.70;;
62654;SDS011;48717;55.556;37.816;2023-03-21T13:32:44;6.93;;;3.05;;
62654;SDS011;48717;55.556;37.816;2023-03-21T13:37:57;5.90;;;3.13;;
62654;SDS011;48717;55.556;37.816;2023-03-21T13:40:28;8.73;;;3.80;;
62654;SDS011;48717;55.556;37.816;2023-03-21T13:43:03;8.73;;;4.75;;
62654;SDS011;48717;55.556;37.816;2023-03-21T13:45:43;5.95;;;3.10;;
62654;SDS011;48717;55.556;37.816;2023-03-21T13:48:32;4.65;;;2.60;;
62654;SDS011;48717;55.556;37.816;2023-03-21T13:51:50;8.02;;;2.22;;
62654;SDS011;48717;55.556;37.816;2023-03-21T13:54:20;5.15;;;2.70;;
62654;SDS011;48717;55.556;37.816;2023-03-21T13:56:56;6.82;;;2.88;;
62654;SDS011;48717;55.556;37.816;2023-03-21T13:59:43;7.70;;;2.80;;
62654;SDS011;48717;55.556;37.816;2023-03-21T14:04:38;4.45;;;2.60;;
62654;SDS011;48717;55.556;37.816;2023-03-21T14:07:26;4.18;;;2.30;;
62654;SDS011;48717;55.556;37.816;2023-03-21T14:10:06;5.45;;;2.72;;
62654;SDS011;48717;55.556;37.816;2023-03-21T14:12:43;4.18;;;2.40;;
62654;SDS011;48717;55.556;37.816;2023-03-21T14:15:17;4.30;;;2.25;;
62654;SDS011;48717;55.556;37.816;2023-03-21T14:17:50;5.43;;;3.00;;
62654;SDS011;48717;55.556;37.816;2023-03-21T14:22:49;5.22;;;3.10;;
62654;SDS011;48717;55.556;37.816;2023-03-21T14:25:17;3.25;;;2.13;;
62654;SDS011;48717;55.556;37.816;2023-03-21T14:27:47;4.57;;;2.55;;
62654;SDS011;48717;55.556;37.816;2023-03-21T14:30:20;5.63;;;2.60;;
62654;SDS011;48717;55.556;37.816;2023-03-21T14:32:57;8.77;;;2.90;;
62654;SDS011;48717;55.556;37.816;2023-03-21T14:35:28;4.13;;;2.75;;
62654;SDS011;48717;55.556;37.816;2023-03-21T14:38:00;2.92;;;2.10;;
62654;SDS011;48717;55.556;37.816;2023-03-21T14:40:30;9.40;;;4.95;;
62654;SDS011;48717;55.556;37.816;2023-03-21T14:42:59;6.85;;;2.75;;
62654;SDS011;48717;55.556;37.816;2023-03-21T14:45:33;6.45;;;2.13;;
62654;SDS011;48717;55.556;37.816;2023-03-21T14:48:04;6.75;;;2.35;;
62654;SDS011;48717;55.556;37.816;2023-03-21T14:53:06;4.97;;;2.70;;
62654;SDS011;48717;55.556;37.816;2023-03-21T14:55:45;3.25;;;2.40;;
62654;SDS011;48717;55.556;37.816;2023-03-21T14:58:16;3.08;;;2.03;;
62654;SDS011;48717;55.556;37.816;2023-03-21T15:00:46;6.22;;;2.47;;
62654;SDS011;48717;55.556;37.816;2023-03-21T15:03:16;4.88;;;2.78;;
62654;SDS011;48717;55.556;37.816;2023-03-21T15:05:45;7.30;;;3.00;;
62654;SDS011;48717;55.556;37.816;2023-03-21T15:08:14;5.20;;;2.63;;
62654;SDS011;48717;55.556;37.816;2023-03-21T15:10:53;12.05;;;3.47;;
62654;SDS011;48717;55.556;37.816;2023-03-21T15:13:36;8.98;;;3.60;;
62654;SDS011;48717;55.556;37.816;2023-03-21T15:16:10;7.28;;;3.10;;
62654;SDS011;48717;55.556;37.816;2023-03-21T15:18:40;6.23;;;2.70;;
62654;SDS011;48717;55.556;37.816;2023-03-21T15:21:11;2.92;;;1.83;;
62654;SDS011;48717;55.556;37.816;2023-03-21T15:23:45;5.78;;;1.75;;
62654;SDS011;48717;55.556;37.816;2023-03-21T15:26:14;5.03;;;3.00;;
62654;SDS011;48717;55.556;37.816;2023-03-21T15:28:43;5.40;;;3.08;;
62654;SDS011;48717;55.556;37.816;2023-03-21T15:31:16;7.93;;;2.90;;
62654;SDS011;48717;55.556;37.816;2023-03-21T15:33:46;7.43;;;3.10;;
62654;SDS011;48717;55.556;37.816;2023-03-21T15:36:21;5.95;;;2.88;;
62654;SDS011;48717;55.556;37.816;2023-03-21T15:38:52;3.95;;;2.20;;
62654;SDS011;48717;55.556;37.816;2023-03-21T15:43:47;3.75;;;2.28;;
62654;SDS011;48717;55.556;37.816;2023-03-21T15:46:42;7.30;;;3.30;;
62654;SDS011;48717;55.556;37.816;2023-03-21T15:51:42;5.00;;;1.95;;
62654;SDS011;48717;55.556;37.816;2023-03-21T15:54:15;4.65;;;2.50;;
62654;SDS011;48717;55.556;37.816;2023-03-21T15:56:54;8.55;;;2.90;;
62654;SDS011;48717;55.556;37.816;2023-03-21T15:59:23;5.57;;;2.42;;
62654;SDS011;48717;55.556;37.816;2023-03-21T16:01:52;5.68;;;2.13;;
62654;SDS011;48717;55.556;37.816;2023-03-21T16:04:19;11.93;;;3.40;;
62654;SDS011;48717;55.556;37.816;2023-03-21T16:06:49;12.65;;;4.38;;
62654;SDS011;48717;55.556;37.816;2023-03-21T16:09:24;10.15;;;4.10;;
62654;SDS011;48717;55.556;37.816;2023-03-21T16:11:56;5.30;;;2.35;;
62654;SDS011;48717;55.556;37.816;2023-03-21T16:14:25;9.48;;;4.28;;
62654;SDS011;48717;55.556;37.816;2023-03-21T16:16:55;6.00;;;2.83;;
62654;SDS011;48717;55.556;37.816;2023-03-21T16:19:23;8.95;;;4.00;;
62654;SDS011;48717;55.556;37.816;2023-03-21T16:21:50;8.77;;;3.92;;
62654;SDS011;48717;55.556;37.816;2023-03-21T16:24:18;9.90;;;4.40;;
62654;SDS011;48717;55.556;37.816;2023-03-21T16:26:45;7.40;;;3.70;;
62654;SDS011;48717;55.556;37.816;2023-03-21T16:29:16;9.48;;;3.58;;
62654;SDS011;48717;55.556;37.816;2023-03-21T16:31:44;10.93;;;4.65;;
62654;SDS011;48717;55.556;37.816;2023-03-21T16:34:13;8.93;;;3.47;;
62654;SDS011;48717;55.556;37.816;2023-03-21T16:36:40;13.65;;;4.47;;
62654;SDS011;48717;55.556;37.816;2023-03-21T16:39:16;10.85;;;3.63;;
62654;SDS011;48717;55.556;37.816;2023-03-21T16:41:45;9.40;;;4.50;;
62654;SDS011;48717;55.556;37.816;2023-03-21T16:44:13;10.70;;;3.78;;